Time;durP1;ratioP1;P1;durP2;ratioP2;P2;SDS_P1;SDS_P2;PMS_P1;PMS_P2;Temp;Humidity;BMP_temperature;BMP_pressure;BME280_temperature;BME280_humidity;BME280_pressure;Samples;Min_cycle;Max_cycle;Signal;HPM_P1;HPM_P2
2022/01/27 00:02:42;;;;;;;55.55;23.88;;;4.80;99.90;;;;;;5050721;28;20037;-72
2022/01/27 00:05:20;;;;;;;57.90;23.87;;;4.80;99.90;;;;;;5048750;28;20087;-72
2022/01/27 00:13:16;;;;;;;53.27;22.27;;;4.80;99.90;;;;;;5032252;28;20033;-72
2022/01/27 00:15:44;;;;;;;50.13;22.00;;;4.70;99.90;;;;;;5032047;28;20492;-72
2022/01/27 00:18:17;;;;;;;53.80;22.33;;;4.80;99.90;;;;;;5050268;28;20057;-72
2022/01/27 00:20:48;;;;;;;48.80;21.80;;;4.80;99.90;;;;;;5050580;28;20037;-72
2022/01/27 00:23:14;;;;;;;48.53;21.77;;;4.80;99.90;;;;;;5050021;28;20020;-71
2022/01/27 00:25:40;;;;;;;45.80;21.63;;;4.80;99.90;;;;;;5050316;28;20056;-72
2022/01/27 00:28:07;;;;;;;49.87;21.27;;;4.80;99.90;;;;;;5050096;28;20474;-72
2022/01/27 00:30:34;;;;;;;47.57;21.77;;;4.80;99.90;;;;;;5032053;28;20036;-72
2022/01/27 00:33:01;;;;;;;45.97;20.63;;;4.80;99.90;;;;;;5032337;28;20029;-71
2022/01/27 00:35:26;;;;;;;41.03;20.07;;;4.80;99.90;;;;;;5050118;28;20047;-72
2022/01/27 00:37:52;;;;;;;44.73;20.77;;;4.80;99.90;;;;;;5032475;28;20036;-71
2022/01/27 00:40:18;;;;;;;46.03;21.20;;;4.80;99.90;;;;;;5050157;28;20580;-72
2022/01/27 00:42:45;;;;;;;45.47;20.90;;;4.70;99.90;;;;;;5049984;28;20029;-72
2022/01/27 00:45:11;;;;;;;43.83;20.47;;;4.80;99.90;;;;;;5049471;28;20029;-72
2022/01/27 00:47:37;;;;;;;45.60;22.07;;;4.80;99.90;;;;;;5050132;28;20087;-70
2022/01/27 00:50:03;;;;;;;47.43;22.63;;;4.70;99.90;;;;;;5049901;28;20036;-70
2022/01/27 00:52:40;;;;;;;50.80;23.33;;;4.80;99.90;;;;;;5050173;28;20032;-72
2022/01/27 00:55:08;;;;;;;51.30;23.10;;;4.80;99.90;;;;;;5049417;28;20036;-72
2022/01/27 00:57:57;;;;;;;48.80;23.33;;;4.80;99.90;;;;;;5031974;28;20116;-72
2022/01/27 01:00:32;;;;;;;45.87;21.83;;;4.70;99.90;;;;;;5049442;28;20033;-72
2022/01/27 01:03:05;;;;;;;48.37;21.30;;;4.70;99.90;;;;;;5032138;28;20083;-71
2022/01/27 01:08:44;;;;;;;44.77;21.47;;;4.70;99.90;;;;;;5049735;28;20029;-72
2022/01/27 01:16:10;;;;;;;41.00;20.23;;;4.80;99.90;;;;;;5049115;28;20037;-71
2022/01/27 01:18:59;;;;;;;44.67;22.17;;;4.80;99.90;;;;;;5049356;28;20523;-70
2022/01/27 01:34:33;;;;;;;48.07;20.73;;;4.80;99.90;;;;;;5049053;28;20025;-72
2022/01/27 01:37:05;;;;;;;47.17;21.83;;;4.70;99.90;;;;;;5049117;28;20101;-72
2022/01/27 01:39:33;;;;;;;48.63;23.07;;;4.70;99.90;;;;;;5049086;28;20035;-72
2022/01/27 01:42:02;;;;;;;46.67;21.20;;;4.70;99.90;;;;;;5049058;28;20029;-72
2022/01/27 01:44:28;;;;;;;45.92;22.13;;;4.70;99.90;;;;;;5030617;28;20021;-72
2022/01/27 01:46:55;;;;;;;47.77;22.40;;;4.70;99.90;;;;;;5049287;28;20381;-72
2022/01/27 01:49:26;;;;;;;49.73;21.87;;;4.70;99.90;;;;;;5048756;28;20535;-72
2022/01/27 01:51:54;;;;;;;50.40;21.80;;;4.70;99.90;;;;;;5049025;28;20040;-72
2022/01/27 01:54:20;;;;;;;49.53;21.63;;;4.80;99.90;;;;;;5048602;28;20032;-72
2022/01/27 01:56:46;;;;;;;49.40;21.70;;;4.70;99.90;;;;;;5048858;28;20041;-72
2022/01/27 01:59:12;;;;;;;49.03;21.33;;;4.70;99.90;;;;;;5030911;28;20120;-70
2022/01/27 02:01:40;;;;;;;46.27;20.30;;;4.70;99.90;;;;;;5048329;28;20032;-70
2022/01/27 02:04:09;;;;;;;46.80;21.07;;;4.70;99.90;;;;;;5048594;28;20037;-73
2022/01/27 02:06:46;;;;;;;46.55;20.73;;;4.70;99.90;;;;;;5048652;28;20033;-70
2022/01/27 02:09:21;;;;;;;45.97;20.33;;;4.70;99.90;;;;;;5048340;28;20026;-71
2022/01/27 02:20:02;;;;;;;46.30;20.23;;;4.60;99.90;;;;;;5052006;28;20422;-71
2022/01/27 02:22:28;;;;;;;43.63;21.20;;;4.70;99.90;;;;;;5052028;28;20079;-71
2022/01/27 02:24:54;;;;;;;46.17;20.63;;;4.60;99.90;;;;;;5051381;28;20045;-71
2022/01/27 02:27:21;;;;;;;48.37;20.93;;;4.60;99.90;;;;;;5051918;28;20074;-71
2022/01/27 02:29:47;;;;;;;49.40;20.93;;;4.60;99.90;;;;;;5051429;28;20032;-71
2022/01/27 02:32:15;;;;;;;47.47;20.67;;;4.60;99.90;;;;;;5052084;28;20339;-71
2022/01/27 02:34:41;;;;;;;49.27;21.50;;;4.70;99.90;;;;;;5051663;28;20503;-70
2022/01/27 02:37:08;;;;;;;47.97;20.50;;;4.70;99.90;;;;;;5051674;28;20032;-72
2022/01/27 02:39:34;;;;;;;49.60;21.20;;;4.70;99.90;;;;;;5051441;28;20301;-71
2022/01/27 02:42:05;;;;;;;49.03;20.87;;;4.70;99.90;;;;;;5051686;28;20051;-71
2022/01/27 02:44:46;;;;;;;46.23;19.57;;;4.70;99.90;;;;;;5033090;28;20131;-71
2022/01/27 02:47:13;;;;;;;45.50;20.90;;;4.70;99.90;;;;;;5051662;28;20044;-71
2022/01/27 02:49:39;;;;;;;47.83;20.77;;;4.70;99.90;;;;;;5033381;28;20450;-71
2022/01/27 02:52:06;;;;;;;45.37;20.20;;;4.70;99.90;;;;;;5051838;28;20044;-71
2022/01/27 02:54:32;;;;;;;45.80;20.43;;;4.70;99.90;;;;;;5051438;28;20071;-71
2022/01/27 02:56:58;;;;;;;47.23;19.47;;;4.70;99.90;;;;;;5051460;28;20374;-71
2022/01/27 02:59:24;;;;;;;46.07;20.47;;;4.70;99.90;;;;;;5051024;28;20037;-72
2022/01/27 03:01:51;;;;;;;44.10;19.50;;;4.80;99.90;;;;;;5051458;28;20035;-71
2022/01/27 03:04:19;;;;;;;43.50;19.23;;;4.80;99.90;;;;;;5050972;28;20036;-72
2022/01/27 03:06:46;;;;;;;44.57;19.53;;;4.80;99.90;;;;;;5051508;28;20029;-71
2022/01/27 03:09:13;;;;;;;39.20;19.07;;;4.80;99.90;;;;;;5051104;28;20078;-71
2022/01/27 03:11:39;;;;;;;40.80;19.77;;;4.80;99.90;;;;;;5051290;28;20104;-71
2022/01/27 03:14:06;;;;;;;42.77;19.57;;;4.80;99.90;;;;;;5032949;28;20406;-70
2022/01/27 03:16:32;;;;;;;41.67;19.53;;;4.80;99.90;;;;;;5050682;28;20041;-71
2022/01/27 03:18:58;;;;;;;41.47;18.60;;;4.80;99.90;;;;;;5050966;28;20515;-71
2022/01/27 03:21:23;;;;;;;40.60;18.83;;;4.80;99.90;;;;;;5032796;28;20036;-71
2022/01/27 03:23:50;;;;;;;40.17;18.53;;;4.70;99.90;;;;;;5050624;28;20029;-71
2022/01/27 03:26:16;;;;;;;38.30;18.40;;;4.80;99.90;;;;;;5051138;28;20495;-72
2022/01/27 03:28:41;;;;;;;42.47;19.13;;;4.80;99.90;;;;;;5032890;28;20452;-71
2022/01/27 03:31:07;;;;;;;41.17;19.30;;;4.80;99.90;;;;;;5050174;28;20051;-71
2022/01/27 03:33:33;;;;;;;45.37;19.50;;;4.80;99.90;;;;;;5050385;28;20035;-71
2022/01/27 03:35:59;;;;;;;41.43;18.80;;;4.80;99.90;;;;;;5050298;28;20115;-71
2022/01/27 03:38:25;;;;;;;44.47;19.60;;;4.80;99.90;;;;;;5050508;28;20033;-71
2022/01/27 03:40:51;;;;;;;40.90;18.63;;;4.80;99.90;;;;;;5032355;28;20468;-70
2022/01/27 03:43:17;;;;;;;43.50;19.93;;;4.80;99.90;;;;;;5050449;28;20600;-71
2022/01/27 03:45:43;;;;;;;41.70;19.07;;;4.80;99.90;;;;;;5050019;28;20033;-72
2022/01/27 03:48:09;;;;;;;41.53;18.60;;;4.80;99.90;;;;;;5050388;28;20511;-71
2022/01/27 03:50:35;;;;;;;38.00;19.03;;;4.80;99.90;;;;;;5050517;28;20474;-70
2022/01/27 03:53:01;;;;;;;40.27;18.23;;;4.80;99.90;;;;;;5032418;28;20036;-72
2022/01/27 03:55:27;;;;;;;38.43;18.00;;;4.80;99.90;;;;;;5050350;28;20029;-71
2022/01/27 03:57:53;;;;;;;38.37;17.37;;;4.80;99.90;;;;;;5050306;28;20033;-72
2022/01/27 04:00:19;;;;;;;39.70;18.67;;;4.80;99.90;;;;;;5032000;28;20029;-72
2022/01/27 04:03:06;;;;;;;39.77;18.47;;;4.80;99.90;;;;;;5050107;28;20024;-71
2022/01/27 04:05:37;;;;;;;42.77;18.10;;;4.80;99.90;;;;;;5050131;28;20037;-72
2022/01/27 04:08:05;;;;;;;40.37;19.10;;;4.80;99.90;;;;;;5050111;28;20323;-72
2022/01/27 04:10:32;;;;;;;44.43;18.80;;;4.80;99.90;;;;;;5050348;28;20091;-72
2022/01/27 04:12:58;;;;;;;44.00;18.93;;;4.80;99.90;;;;;;5049964;28;20025;-70
2022/01/27 04:15:24;;;;;;;44.90;19.13;;;4.80;99.90;;;;;;5031390;28;20466;-70
2022/01/27 04:17:51;;;;;;;41.10;17.97;;;4.80;99.90;;;;;;5050081;28;20040;-72
2022/01/27 04:20:17;;;;;;;40.33;18.33;;;4.80;99.90;;;;;;5049922;28;20028;-71
2022/01/27 04:22:43;;;;;;;42.10;17.70;;;4.80;99.90;;;;;;5049716;28;20029;-71
2022/01/27 04:25:12;;;;;;;41.73;18.20;;;4.70;99.90;;;;;;5049513;28;20420;-70
2022/01/27 04:27:41;;;;;;;42.50;18.23;;;4.70;99.90;;;;;;5049936;28;20051;-70
2022/01/27 04:30:14;;;;;;;40.03;17.58;;;4.80;99.90;;;;;;5049968;28;20063;-71
2022/01/27 04:32:45;;;;;;;44.53;18.50;;;4.70;99.90;;;;;;5031645;28;20033;-72
2022/01/27 04:35:15;;;;;;;43.83;17.87;;;4.80;99.90;;;;;;5031565;28;20401;-71
2022/01/27 04:37:53;;;;;;;40.63;19.30;;;4.80;99.90;;;;;;5049490;28;20119;-71
2022/01/27 04:40:25;;;;;;;42.20;18.40;;;4.70;99.90;;;;;;5049378;28;20036;-72
2022/01/27 04:43:23;;;;;;;42.13;18.03;;;4.80;99.90;;;;;;5049531;28;20029;-73
2022/01/27 04:45:58;;;;;;;44.33;18.93;;;4.80;99.90;;;;;;5048461;28;20174;-69
2022/01/27 04:48:25;;;;;;;39.27;18.03;;;4.70;99.90;;;;;;5049316;28;20405;-70
2022/01/27 04:50:52;;;;;;;37.53;18.07;;;4.70;99.90;;;;;;5049450;28;20028;-70
2022/01/27 04:53:29;;;;;;;41.17;18.30;;;4.70;99.90;;;;;;5044691;28;20501;-72
2022/01/27 04:55:57;;;;;;;39.83;17.73;;;4.80;99.90;;;;;;5031470;28;20362;-71
2022/01/27 04:58:31;;;;;;;41.27;17.23;;;4.70;99.90;;;;;;5047410;28;20251;-71
2022/01/27 05:00:59;;;;;;;42.10;18.17;;;4.80;99.90;;;;;;5042868;28;20033;-71
2022/01/27 05:05:57;;;;;;;41.00;17.60;;;4.80;99.90;;;;;;5048977;28;20100;-71
2022/01/27 05:08:24;;;;;;;38.33;17.20;;;4.80;99.90;;;;;;5049041;28;20418;-71
2022/01/27 05:11:00;;;;;;;38.27;16.87;;;4.80;99.90;;;;;;5049065;28;20025;-70
2022/01/27 05:13:29;;;;;;;37.93;16.83;;;4.90;99.90;;;;;;5049065;28;20046;-71
2022/01/27 05:15:55;;;;;;;41.28;17.65;;;4.80;99.90;;;;;;5048500;28;20534;-70
2022/01/27 05:18:21;;;;;;;39.77;17.87;;;4.80;99.90;;;;;;5048978;28;20095;-70
2022/01/27 05:20:48;;;;;;;36.00;16.10;;;4.90;99.90;;;;;;5048929;28;20056;-70
2022/01/27 05:23:14;;;;;;;38.87;17.03;;;4.90;99.90;;;;;;5048701;28;20033;-70
2022/01/27 05:25:40;;;;;;;40.37;17.63;;;4.90;99.90;;;;;;5048912;28;20127;-69
2022/01/27 05:28:07;;;;;;;38.63;15.83;;;4.80;99.90;;;;;;5048893;28;20374;-70
2022/01/27 05:30:34;;;;;;;40.43;17.90;;;4.90;99.90;;;;;;5048432;28;20029;-70
2022/01/27 05:33:00;;;;;;;40.80;18.77;;;4.90;99.90;;;;;;5049029;28;20082;-69
2022/01/27 05:35:27;;;;;;;39.93;17.57;;;4.90;99.90;;;;;;5048762;28;20143;-70
2022/01/27 05:37:53;;;;;;;38.07;16.83;;;4.90;99.90;;;;;;5049181;28;20032;-70
2022/01/27 05:40:20;;;;;;;39.83;17.13;;;4.90;99.90;;;;;;5079449;22;20033;-67
2022/01/27 05:42:46;;;;;;;36.67;15.70;;;4.90;99.90;;;;;;5027702;28;20103;-68
2022/01/27 05:45:12;;;;;;;38.90;17.57;;;5.00;99.90;;;;;;5030149;28;20046;-68
2022/01/27 05:47:38;;;;;;;36.97;16.30;;;4.90;99.90;;;;;;5033343;28;20385;-68
2022/01/27 05:50:05;;;;;;;36.53;16.43;;;5.00;99.90;;;;;;5033486;28;20112;-68
2022/01/27 05:52:31;;;;;;;37.20;16.87;;;4.90;99.90;;;;;;5033980;28;20427;-68
2022/01/27 05:54:57;;;;;;;35.70;16.10;;;5.00;99.90;;;;;;5033102;28;20046;-68
2022/01/27 05:57:23;;;;;;;37.57;16.20;;;5.00;99.90;;;;;;5032794;28;20026;-68
2022/01/27 05:59:49;;;;;;;36.23;16.77;;;5.10;99.90;;;;;;5032577;28;20551;-68
2022/01/27 06:02:15;;;;;;;38.17;16.57;;;5.10;99.90;;;;;;5033731;28;20025;-69
2022/01/27 06:04:41;;;;;;;34.37;17.23;;;5.10;99.90;;;;;;5033204;28;20447;-70
2022/01/27 06:07:07;;;;;;;36.50;15.43;;;5.10;99.90;;;;;;5032878;28;20079;-67
2022/01/27 06:09:33;;;;;;;34.53;15.93;;;5.10;99.90;;;;;;5032494;28;20493;-67
2022/01/27 06:11:59;;;;;;;35.40;15.57;;;5.10;99.90;;;;;;5032914;28;20045;-67
2022/01/27 06:14:25;;;;;;;38.77;16.83;;;5.10;99.90;;;;;;5032044;28;20363;-67
2022/01/27 06:16:51;;;;;;;38.20;15.90;;;5.10;99.90;;;;;;5032663;28;20039;-66
2022/01/27 06:19:17;;;;;;;39.37;16.97;;;5.20;99.90;;;;;;5032149;28;20033;-67
2022/01/27 06:21:44;;;;;;;36.40;16.10;;;5.20;99.90;;;;;;5032517;28;20091;-66
2022/01/27 06:24:10;;;;;;;38.23;16.20;;;5.30;99.90;;;;;;5032269;28;20037;-67
2022/01/27 06:26:36;;;;;;;34.90;16.07;;;5.30;99.90;;;;;;5032142;28;20032;-67
2022/01/27 06:29:03;;;;;;;38.90;16.80;;;5.30;99.90;;;;;;5032343;28;20459;-67
2022/01/27 06:31:29;;;;;;;33.17;15.57;;;5.30;99.90;;;;;;5031410;28;20029;-67
2022/01/27 06:33:55;;;;;;;36.97;15.77;;;5.40;99.90;;;;;;5031839;28;20038;-67
2022/01/27 06:36:21;;;;;;;39.00;16.00;;;5.40;99.90;;;;;;5031823;28;20044;-67
2022/01/27 06:38:48;;;;;;;35.40;16.23;;;5.40;99.90;;;;;;5031857;28;20033;-67
2022/01/27 06:41:14;;;;;;;36.47;16.40;;;5.40;99.90;;;;;;5031713;28;20045;-67
2022/01/27 06:43:40;;;;;;;33.43;15.23;;;5.50;99.90;;;;;;5031885;28;20072;-67
2022/01/27 06:46:06;;;;;;;36.10;15.83;;;5.50;99.90;;;;;;5031500;28;20068;-67
2022/01/27 06:48:32;;;;;;;32.80;16.07;;;5.50;99.90;;;;;;5032177;28;20033;-67
2022/01/27 06:51:00;;;;;;;34.27;15.30;;;5.50;99.90;;;;;;5031952;28;20076;-67
2022/01/27 06:53:26;;;;;;;36.50;16.10;;;5.60;99.90;;;;;;5031834;28;20044;-67
2022/01/27 06:55:54;;;;;;;35.37;15.67;;;5.60;99.90;;;;;;5031612;28;20093;-67
2022/01/27 06:58:20;;;;;;;36.27;16.50;;;5.60;99.90;;;;;;5031911;28;20474;-67
2022/01/27 07:00:46;;;;;;;36.60;16.43;;;5.60;99.90;;;;;;5031470;28;20072;-67
2022/01/27 07:03:12;;;;;;;38.00;16.93;;;5.70;99.90;;;;;;5031718;28;20115;-67
2022/01/27 07:05:40;;;;;;;38.07;18.00;;;5.70;99.90;;;;;;5031832;28;20141;-67
2022/01/27 07:08:06;;;;;;;35.93;16.83;;;5.80;99.90;;;;;;5031685;28;20401;-67
2022/01/27 07:10:31;;;;;;;39.23;16.93;;;5.80;99.90;;;;;;5031817;28;20029;-67
2022/01/27 07:12:57;;;;;;;36.13;16.60;;;5.80;99.90;;;;;;5031207;28;20037;-66
2022/01/27 07:15:24;;;;;;;39.07;17.70;;;5.80;99.90;;;;;;5031036;28;20029;-67
2022/01/27 07:17:50;;;;;;;38.40;16.63;;;5.80;99.90;;;;;;5031275;28;20057;-68
2022/01/27 07:20:17;;;;;;;42.30;19.60;;;5.90;99.90;;;;;;5031252;28;20494;-73
2022/01/27 07:22:43;;;;;;;35.83;16.07;;;6.90;99.90;;;;;;5031407;28;20066;-75
2022/01/27 07:25:10;;;;;;;33.93;15.03;;;7.50;99.90;;;;;;5031047;28;20026;-74
2022/01/27 07:27:36;;;;;;;33.53;15.17;;;7.90;99.90;;;;;;5030933;28;20040;-68
2022/01/27 07:30:04;;;;;;;31.60;14.90;;;7.60;99.90;;;;;;5030516;28;20370;-67
2022/01/27 07:32:30;;;;;;;34.73;14.77;;;7.30;99.90;;;;;;5030984;28;20045;-67
2022/01/27 07:34:57;;;;;;;35.53;15.00;;;7.00;99.90;;;;;;5030403;28;20056;-69
2022/01/27 07:37:23;;;;;;;36.83;16.47;;;6.80;99.90;;;;;;5013237;28;20037;-67
2022/01/27 07:39:49;;;;;;;34.07;16.27;;;6.60;99.90;;;;;;5030843;28;20021;-70
2022/01/27 07:42:15;;;;;;;31.90;14.83;;;6.40;99.90;;;;;;5030780;28;20447;-69
2022/01/27 07:44:41;;;;;;;31.07;15.20;;;6.30;99.90;;;;;;5030096;28;20045;-68
2022/01/27 07:47:07;;;;;;;33.03;15.37;;;6.20;99.90;;;;;;5030847;28;20032;-67
2022/01/27 07:49:33;;;;;;;34.57;15.40;;;6.20;99.90;;;;;;5030585;28;20121;-68
2022/01/27 07:51:59;;;;;;;36.07;16.20;;;6.10;99.90;;;;;;5012664;28;20505;-67
2022/01/27 07:54:25;;;;;;;37.30;16.90;;;6.10;99.90;;;;;;5029941;28;20455;-68
2022/01/27 07:56:51;;;;;;;36.07;16.43;;;6.10;99.90;;;;;;5013002;28;20233;-68
2022/01/27 07:59:17;;;;;;;39.27;16.43;;;6.10;99.90;;;;;;5029698;28;20076;-68
2022/01/27 08:01:42;;;;;;;35.67;16.70;;;6.10;99.90;;;;;;5030137;28;20034;-67
2022/01/27 08:04:09;;;;;;;42.43;18.27;;;6.10;99.90;;;;;;5029811;28;20306;-68
2022/01/27 08:06:35;;;;;;;45.03;18.77;;;6.10;99.90;;;;;;5029991;28;20230;-68
2022/01/27 08:09:00;;;;;;;40.70;17.23;;;6.10;99.90;;;;;;5029948;28;20036;-68
2022/01/27 08:11:26;;;;;;;43.47;18.27;;;6.00;99.90;;;;;;5012333;28;20037;-67
2022/01/27 08:13:52;;;;;;;37.03;15.57;;;6.00;99.90;;;;;;5030214;28;20109;-68
2022/01/27 08:16:18;;;;;;;37.87;17.67;;;6.00;99.90;;;;;;5029854;28;20462;-65
2022/01/27 08:18:44;;;;;;;43.70;18.40;;;5.90;99.90;;;;;;5030926;28;20037;-69
2022/01/27 08:21:09;;;;;;;41.17;18.83;;;5.90;99.90;;;;;;5030454;28;20091;-68
2022/01/27 08:23:37;;;;;;;41.27;18.43;;;5.90;99.90;;;;;;5030446;28;20037;-67
2022/01/27 08:26:08;;;;;;;41.50;17.93;;;5.80;99.90;;;;;;5026897;28;20028;-68
2022/01/27 08:28:41;;;;;;;43.20;18.17;;;5.80;99.90;;;;;;5011656;28;20080;-67
2022/01/27 08:31:07;;;;;;;41.87;18.97;;;5.80;99.90;;;;;;4992105;28;20205;-67
2022/01/27 08:33:37;;;;;;;40.70;18.17;;;5.80;99.90;;;;;;4992450;28;20070;-67
2022/01/27 08:36:03;;;;;;;45.07;18.93;;;5.80;99.90;;;;;;5010100;28;20107;-68
2022/01/27 08:38:29;;;;;;;48.47;20.73;;;5.80;99.90;;;;;;5010698;28;20030;-68
2022/01/27 08:40:59;;;;;;;49.27;20.63;;;5.80;99.90;;;;;;5011110;28;20193;-68
2022/01/27 08:43:26;;;;;;;46.00;19.80;;;5.80;99.90;;;;;;4992370;28;20107;-68
2022/01/27 08:45:53;;;;;;;46.57;18.77;;;5.90;99.90;;;;;;5011546;28;20041;-67
2022/01/27 08:48:21;;;;;;;45.13;20.17;;;5.90;99.90;;;;;;5011344;28;20395;-68
2022/01/27 08:51:01;;;;;;;45.77;20.97;;;6.00;99.90;;;;;;5011374;28;20467;-67
2022/01/27 08:53:29;;;;;;;42.77;19.63;;;6.00;99.90;;;;;;5011492;28;20486;-67
2022/01/27 08:55:55;;;;;;;50.17;19.83;;;6.00;99.90;;;;;;5011485;28;20193;-70
2022/01/27 08:58:23;;;;;;;48.00;21.10;;;6.00;99.90;;;;;;5011042;28;20104;-69
2022/01/27 09:00:49;;;;;;;45.47;21.07;;;6.00;99.90;;;;;;5011447;28;20075;-68
2022/01/27 09:03:15;;;;;;;55.23;22.87;;;5.90;99.90;;;;;;5011175;28;20034;-74
2022/01/27 09:05:41;;;;;;;53.53;22.53;;;5.90;99.90;;;;;;5010331;28;20022;-73
2022/01/27 09:08:07;;;;;;;55.10;22.13;;;5.90;99.90;;;;;;5010832;28;20025;-73
2022/01/27 09:10:34;;;;;;;55.17;23.80;;;5.80;99.90;;;;;;4993570;28;20042;-73
2022/01/27 09:13:02;;;;;;;51.33;22.20;;;5.80;99.90;;;;;;5011030;28;20062;-73
2022/01/27 09:15:28;;;;;;;51.50;22.70;;;5.90;99.90;;;;;;5011337;28;20441;-73
2022/01/27 09:17:56;;;;;;;48.67;22.17;;;5.90;99.90;;;;;;5011107;28;20026;-73
2022/01/27 09:20:24;;;;;;;48.77;21.17;;;5.90;99.90;;;;;;5014571;28;20026;-73
2022/01/27 09:22:52;;;;;;;51.33;21.73;;;5.90;99.90;;;;;;5015026;28;20478;-73
2022/01/27 09:25:22;;;;;;;50.33;22.83;;;5.90;99.90;;;;;;5015213;28;20034;-73
2022/01/27 09:27:49;;;;;;;50.63;21.43;;;5.90;99.90;;;;;;5014972;28;20041;-73
2022/01/27 09:30:18;;;;;;;53.10;21.37;;;5.90;99.90;;;;;;5015061;28;20026;-73
2022/01/27 09:32:45;;;;;;;50.17;21.42;;;5.90;99.90;;;;;;5015083;28;20058;-73
2022/01/27 09:35:12;;;;;;;49.40;21.60;;;5.90;99.90;;;;;;5014966;28;20038;-73
2022/01/27 09:37:39;;;;;;;48.23;22.07;;;5.90;99.90;;;;;;5014839;28;20096;-73
2022/01/27 09:40:08;;;;;;;44.43;21.07;;;5.90;99.90;;;;;;5015038;28;20087;-73
2022/01/27 09:42:37;;;;;;;;;;;5.90;99.90;;;;;;5015196;28;20065;-73
2022/01/27 09:45:05;;;;;;;46.00;20.83;;;6.00;99.90;;;;;;5014455;28;19975;-73
2022/01/27 09:47:34;;;;;;;48.37;20.23;;;6.00;99.90;;;;;;5014793;28;20069;-73
2022/01/27 09:50:21;;;;;;;38.95;18.75;;;6.00;99.90;;;;;;4996997;28;20041;-73
2022/01/27 09:52:47;;;;;;;49.07;21.50;;;6.00;99.90;;;;;;5014562;28;20030;-73
2022/01/27 09:55:13;;;;;;;43.43;18.83;;;6.00;99.90;;;;;;5014601;28;20026;-73
2022/01/27 09:57:39;;;;;;;42.20;18.73;;;6.00;99.90;;;;;;5014349;28;20110;-73
2022/01/27 10:00:06;;;;;;;40.63;17.97;;;6.00;99.90;;;;;;5014406;28;20034;-73
2022/01/27 10:02:39;;;;;;;35.83;17.93;;;6.00;99.90;;;;;;5014385;28;20044;-73
2022/01/27 10:05:07;;;;;;;41.47;17.83;;;6.00;99.90;;;;;;5013950;28;20025;-73
2022/01/27 10:07:40;;;;;;;40.13;17.73;;;6.00;99.90;;;;;;5014486;28;20442;-73
2022/01/27 10:10:13;;;;;;;37.23;16.57;;;6.00;99.90;;;;;;5014459;28;20022;-73
2022/01/27 10:12:43;;;;;;;36.57;15.97;;;6.10;99.90;;;;;;5014223;28;20030;-73
2022/01/27 10:15:17;;;;;;;39.33;17.77;;;6.10;99.90;;;;;;5013998;28;20104;-73
2022/01/27 10:18:05;;;;;;;35.70;16.97;;;6.10;99.90;;;;;;5013993;28;20049;-73
2022/01/27 10:20:31;;;;;;;39.93;17.13;;;6.10;99.90;;;;;;5014495;28;20068;-73
2022/01/27 10:23:12;;;;;;;38.97;17.87;;;6.10;99.90;;;;;;5014022;28;20029;-73
2022/01/27 10:25:46;;;;;;;37.60;17.77;;;6.10;99.90;;;;;;4996245;28;20380;-73
2022/01/27 10:28:31;;;;;;;35.13;16.93;;;6.20;99.90;;;;;;5013782;28;20036;-73
2022/01/27 10:31:02;;;;;;;36.63;16.67;;;6.20;99.90;;;;;;5013148;28;20105;-73
2022/01/27 10:33:50;;;;;;;35.67;16.77;;;6.20;99.90;;;;;;4996246;28;20034;-73
2022/01/27 10:36:31;;;;;;;40.10;18.03;;;6.20;99.90;;;;;;5013727;28;20434;-73
2022/01/27 10:39:05;;;;;;;41.33;20.23;;;6.20;99.90;;;;;;5013716;28;20029;-73
2022/01/27 10:41:33;;;;;;;35.93;17.37;;;6.20;99.90;;;;;;5013653;28;20041;-73
2022/01/27 10:44:13;;;;;;;30.73;15.40;;;6.20;99.90;;;;;;5013313;28;20030;-73
2022/01/27 10:46:58;;;;;;;33.37;15.47;;;6.30;99.90;;;;;;5013617;28;20272;-73
2022/01/27 10:49:37;;;;;;;31.87;15.73;;;6.30;99.90;;;;;;5013742;28;20030;-73
2022/01/27 10:52:03;;;;;;;30.00;14.43;;;6.30;99.90;;;;;;5013593;28;20482;-73
2022/01/27 10:57:11;;;;;;;29.40;15.40;;;6.20;99.90;;;;;;5013323;28;20100;-73
2022/01/27 10:59:39;;;;;;;30.00;14.23;;;6.20;99.90;;;;;;5013462;28;20034;-73
2022/01/27 11:02:07;;;;;;;31.03;15.07;;;6.30;99.90;;;;;;5013326;28;20088;-73
2022/01/27 11:04:43;;;;;;;28.23;14.20;;;6.30;99.90;;;;;;4979341;28;20124;-73
2022/01/27 11:07:12;;;;;;;27.67;14.03;;;6.30;99.90;;;;;;5013252;28;20064;-73
2022/01/27 11:09:42;;;;;;;27.90;13.85;;;6.30;99.90;;;;;;5013248;28;20057;-73
2022/01/27 11:12:18;;;;;;;27.20;13.47;;;6.30;99.90;;;;;;5013040;28;20042;-73
2022/01/27 11:14:48;;;;;;;26.23;12.80;;;6.40;99.90;;;;;;5012996;28;20026;-73
2022/01/27 11:17:20;;;;;;;27.00;13.33;;;6.40;99.90;;;;;;5013168;28;20064;-73
2022/01/27 11:20:05;;;;;;;24.23;12.20;;;6.40;99.90;;;;;;5013191;28;20069;-73
2022/01/27 11:22:58;;;;;;;24.13;13.03;;;6.40;99.90;;;;;;5013022;28;20085;-73
2022/01/27 11:28:02;;;;;;;28.63;13.37;;;6.40;99.90;;;;;;4995329;28;20117;-73
2022/01/27 11:30:52;;;;;;;25.97;12.03;;;6.40;99.90;;;;;;5012761;28;20034;-73
2022/01/27 11:33:18;;;;;;;25.67;12.70;;;6.50;99.90;;;;;;5012740;28;20061;-73
2022/01/27 11:35:45;;;;;;;25.63;12.60;;;6.50;99.90;;;;;;5012727;28;20045;-73
2022/01/27 11:38:12;;;;;;;25.73;12.00;;;6.50;99.90;;;;;;5012701;28;20074;-73
2022/01/27 11:43:17;;;;;;;29.00;13.00;;;6.50;99.90;;;;;;4990522;28;20051;-72
2022/01/27 11:45:52;;;;;;;25.20;13.07;;;6.60;99.90;;;;;;4993080;28;20034;-72
2022/01/27 11:48:38;;;;;;;28.60;12.47;;;6.50;99.90;;;;;;5004577;28;20037;-72
2022/01/27 11:51:10;;;;;;;33.20;15.30;;;6.60;99.90;;;;;;5012123;28;20037;-73
2022/01/27 11:53:43;;;;;;;28.17;14.73;;;6.60;99.90;;;;;;5012211;28;20038;-73
2022/01/27 11:56:35;;;;;;;24.40;12.97;;;6.60;99.90;;;;;;5012455;28;20117;-73
2022/01/27 11:59:06;;;;;;;26.73;13.30;;;6.60;99.90;;;;;;5011141;28;20033;-73
2022/01/27 12:01:35;;;;;;;26.53;13.33;;;6.60;99.90;;;;;;4994623;28;20030;-73
2022/01/27 12:04:09;;;;;;;24.93;12.83;;;6.60;99.90;;;;;;5012320;28;20489;-73
2022/01/27 12:06:42;;;;;;;23.80;13.13;;;6.60;99.90;;;;;;5012108;28;20120;-72
2022/01/27 12:09:20;;;;;;;25.23;13.47;;;6.60;99.90;;;;;;5010969;28;20030;-75
2022/01/27 12:11:55;;;;;;;24.53;13.20;;;6.60;99.90;;;;;;5012076;28;20099;-71
2022/01/27 12:14:33;;;;;;;24.60;12.57;;;6.70;99.90;;;;;;5011914;28;20494;-71
2022/01/27 12:17:08;;;;;;;24.50;12.60;;;6.70;99.90;;;;;;5012004;28;20037;-71
2022/01/27 12:19:46;;;;;;;24.60;12.50;;;6.60;99.90;;;;;;5012180;28;20507;-71
2022/01/27 12:22:14;;;;;;;23.87;12.40;;;6.70;99.90;;;;;;5011995;28;20257;-72
2022/01/27 12:24:59;;;;;;;24.57;13.17;;;6.70;99.90;;;;;;5011462;28;20065;-74
2022/01/27 12:27:30;;;;;;;22.70;12.87;;;6.70;99.90;;;;;;5011717;28;20033;-72
2022/01/27 12:29:58;;;;;;;23.17;12.97;;;6.70;99.90;;;;;;5011748;28;20489;-72
2022/01/27 12:32:30;;;;;;;24.30;13.13;;;6.70;99.90;;;;;;5011949;28;20037;-72
2022/01/27 12:34:57;;;;;;;24.47;13.33;;;6.80;99.90;;;;;;5011652;28;20108;-72
2022/01/27 12:37:25;;;;;;;22.53;12.93;;;6.80;99.90;;;;;;5011541;28;20461;-74
2022/01/27 12:39:54;;;;;;;26.60;14.43;;;6.80;99.90;;;;;;4994048;28;20390;-72
2022/01/27 12:42:26;;;;;;;23.93;13.30;;;6.80;99.90;;;;;;5011703;28;20029;-73
2022/01/27 12:45:01;;;;;;;25.00;13.67;;;6.90;99.90;;;;;;5011457;28;20026;-73
2022/01/27 12:47:30;;;;;;;25.67;14.40;;;6.90;99.90;;;;;;5011316;28;20026;-73
2022/01/27 12:50:06;;;;;;;25.02;13.45;;;6.90;99.90;;;;;;5011613;28;20042;-71
2022/01/27 12:52:39;;;;;;;24.67;14.00;;;6.90;99.90;;;;;;5011714;28;20057;-71
2022/01/27 12:55:07;;;;;;;23.87;13.80;;;6.90;99.90;;;;;;5010951;28;20057;-72
2022/01/27 12:57:33;;;;;;;25.77;13.87;;;6.90;99.90;;;;;;5011367;28;20052;-74
2022/01/27 13:00:02;;;;;;;25.40;14.50;;;6.90;99.90;;;;;;5011246;28;20026;-71
2022/01/27 13:02:29;;;;;;;25.52;14.30;;;6.90;99.90;;;;;;5011408;28;20029;-71
2022/01/27 13:04:59;;;;;;;27.55;14.40;;;6.90;99.90;;;;;;5011264;28;20053;-71
2022/01/27 13:07:27;;;;;;;26.13;13.98;;;6.90;99.90;;;;;;5011385;28;20025;-71
2022/01/27 13:10:01;;;;;;;23.87;13.50;;;7.00;99.90;;;;;;5011348;28;20054;-72
2022/01/27 13:12:41;;;;;;;26.20;13.53;;;7.00;99.90;;;;;;5009907;28;20026;-70
2022/01/27 13:15:11;;;;;;;25.77;13.83;;;7.00;99.90;;;;;;5011179;28;20022;-71
2022/01/27 13:17:45;;;;;;;26.80;14.23;;;7.00;99.90;;;;;;5011216;28;20029;-72
2022/01/27 13:22:59;;;;;;;18.60;11.90;;;7.00;99.90;;;;;;5011087;28;20034;-71
2022/01/27 13:25:40;;;;;;;23.87;12.90;;;7.10;99.90;;;;;;5011254;28;20390;-71
2022/01/27 13:28:18;;;;;;;21.27;12.80;;;7.10;99.90;;;;;;4993617;28;20072;-72
2022/01/27 13:30:50;;;;;;;18.97;11.43;;;7.10;99.90;;;;;;5011140;28;20036;-72
2022/01/27 13:33:18;;;;;;;21.00;12.33;;;7.10;99.90;;;;;;5011004;28;20415;-71
2022/01/27 13:35:46;;;;;;;18.90;11.60;;;7.20;99.90;;;;;;5011136;28;20034;-71
2022/01/27 13:38:25;;;;;;;17.50;11.00;;;7.20;99.90;;;;;;5011296;28;20034;-72